sensor_id;sensor_type;location;lat;lon;timestamp;temperature;humidity
51021;DHT22;38907;45.562;8.856;2023-02-28T00:00:46;5.90;99.90
51021;DHT22;38907;45.562;8.856;2023-02-28T00:05:49;5.90;99.90
51021;DHT22;38907;45.562;8.856;2023-02-28T00:10:51;5.80;99.90
51021;DHT22;38907;45.562;8.856;2023-02-28T00:16:00;5.60;99.90
51021;DHT22;38907;45.562;8.856;2023-02-28T00:21:04;5.50;99.90
51021;DHT22;38907;45.562;8.856;2023-02-28T00:26:06;5.50;99.90
51021;DHT22;38907;45.562;8.856;2023-02-28T00:31:08;5.50;99.90
51021;DHT22;38907;45.562;8.856;2023-02-28T00:36:11;5.50;99.90
51021;DHT22;38907;45.562;8.856;2023-02-28T00:41:13;5.50;99.90
51021;DHT22;38907;45.562;8.856;2023-02-28T00:46:15;5.50;99.90
51021;DHT22;38907;45.562;8.856;2023-02-28T00:51:18;5.50;99.90
51021;DHT22;38907;45.562;8.856;2023-02-28T00:56:20;5.60;99.90
51021;DHT22;38907;45.562;8.856;2023-02-28T01:01:22;5.80;99.90
51021;DHT22;38907;45.562;8.856;2023-02-28T01:06:25;5.70;99.90
51021;DHT22;38907;45.562;8.856;2023-02-28T01:11:27;5.60;99.90
51021;DHT22;38907;45.562;8.856;2023-02-28T01:16:30;5.60;99.90
51021;DHT22;38907;45.562;8.856;2023-02-28T01:21:33;5.50;99.90
51021;DHT22;38907;45.562;8.856;2023-02-28T01:26:36;5.50;99.90
51021;DHT22;38907;45.562;8.856;2023-02-28T01:31:38;5.50;99.90
51021;DHT22;38907;45.562;8.856;2023-02-28T01:36:41;5.50;99.90
51021;DHT22;38907;45.562;8.856;2023-02-28T01:41:43;5.40;99.90
51021;DHT22;38907;45.562;8.856;2023-02-28T01:46:45;5.20;99.90
51021;DHT22;38907;45.562;8.856;2023-02-28T01:51:50;5.20;99.90
51021;DHT22;38907;45.562;8.856;2023-02-28T01:56:55;5.20;99.90
51021;DHT22;38907;45.562;8.856;2023-02-28T02:01:58;5.30;99.90
51021;DHT22;38907;45.562;8.856;2023-02-28T02:07:02;5.20;99.90
51021;DHT22;38907;45.562;8.856;2023-02-28T02:12:13;5.20;99.90
51021;DHT22;38907;45.562;8.856;2023-02-28T02:17:24;5.20;99.90
51021;DHT22;38907;45.562;8.856;2023-02-28T02:28:47;5.10;99.90
51021;DHT22;38907;45.562;8.856;2023-02-28T02:34:35;5.10;99.90
51021;DHT22;38907;45.562;8.856;2023-02-28T02:39:44;5.10;99.90
51021;DHT22;38907;45.562;8.856;2023-02-28T02:44:53;5.10;99.90
51021;DHT22;38907;45.562;8.856;2023-02-28T02:50:02;5.20;99.90
51021;DHT22;38907;45.562;8.856;2023-02-28T02:55:07;5.20;99.90
51021;DHT22;38907;45.562;8.856;2023-02-28T03:00:14;5.20;99.90
51021;DHT22;38907;45.562;8.856;2023-02-28T03:05:21;5.20;99.90
51021;DHT22;38907;45.562;8.856;2023-02-28T03:10:31;5.10;99.90
51021;DHT22;38907;45.562;8.856;2023-02-28T03:15:41;5.20;99.90
51021;DHT22;38907;45.562;8.856;2023-02-28T03:20:51;5.30;99.90
51021;DHT22;38907;45.562;8.856;2023-02-28T03:26:02;5.30;99.90
51021;DHT22;38907;45.562;8.856;2023-02-28T03:31:12;5.20;99.90
51021;DHT22;38907;45.562;8.856;2023-02-28T03:36:20;5.20;99.90
51021;DHT22;38907;45.562;8.856;2023-02-28T03:41:29;5.20;99.90
51021;DHT22;38907;45.562;8.856;2023-02-28T03:46:36;5.30;99.90
51021;DHT22;38907;45.562;8.856;2023-02-28T03:51:42;5.40;99.90
51021;DHT22;38907;45.562;8.856;2023-02-28T03:56:48;5.40;99.90
51021;DHT22;38907;45.562;8.856;2023-02-28T04:01:54;5.40;99.90
51021;DHT22;38907;45.562;8.856;2023-02-28T04:07:04;5.40;99.90
51021;DHT22;38907;45.562;8.856;2023-02-28T04:12:06;5.40;99.90
51021;DHT22;38907;45.562;8.856;2023-02-28T04:17:08;5.40;99.90
51021;DHT22;38907;45.562;8.856;2023-02-28T04:22:11;5.40;99.90
51021;DHT22;38907;45.562;8.856;2023-02-28T04:27:14;5.40;99.90
51021;DHT22;38907;45.562;8.856;2023-02-28T04:32:16;5.40;99.90
51021;DHT22;38907;45.562;8.856;2023-02-28T04:37:19;5.40;99.90
51021;DHT22;38907;45.562;8.856;2023-02-28T04:42:21;5.50;99.90
51021;DHT22;38907;45.562;8.856;2023-02-28T04:47:23;5.40;99.90
51021;DHT22;38907;45.562;8.856;2023-02-28T04:52:27;5.30;99.90
51021;DHT22;38907;45.562;8.856;2023-02-28T04:57:29;5.20;99.90
51021;DHT22;38907;45.562;8.856;2023-02-28T05:02:31;5.30;99.90
51021;DHT22;38907;45.562;8.856;2023-02-28T05:07:36;5.30;99.90
51021;DHT22;38907;45.562;8.856;2023-02-28T05:12:38;5.20;99.90
51021;DHT22;38907;45.562;8.856;2023-02-28T05:17:40;5.30;99.90
51021;DHT22;38907;45.562;8.856;2023-02-28T05:22:44;5.40;99.90
51021;DHT22;38907;45.562;8.856;2023-02-28T05:27:46;5.40;99.90
51021;DHT22;38907;45.562;8.856;2023-02-28T05:32:51;5.50;99.90
51021;DHT22;38907;45.562;8.856;2023-02-28T05:37:54;5.50;99.90
51021;DHT22;38907;45.562;8.856;2023-02-28T05:42:56;5.30;99.90
51021;DHT22;38907;45.562;8.856;2023-02-28T05:47:57;5.20;99.90
51021;DHT22;38907;45.562;8.856;2023-02-28T05:53:01;5.20;99.90
51021;DHT22;38907;45.562;8.856;2023-02-28T05:58:03;5.20;99.90
51021;DHT22;38907;45.562;8.856;2023-02-28T06:03:05;5.30;99.90
51021;DHT22;38907;45.562;8.856;2023-02-28T06:08:08;5.40;99.90
51021;DHT22;38907;45.562;8.856;2023-02-28T06:13:10;5.40;99.90
51021;DHT22;38907;45.562;8.856;2023-02-28T06:18:12;5.40;99.90
51021;DHT22;38907;45.562;8.856;2023-02-28T06:23:15;5.50;99.90
51021;DHT22;38907;45.562;8.856;2023-02-28T06:28:17;5.40;99.90
51021;DHT22;38907;45.562;8.856;2023-02-28T06:33:19;5.40;99.90
51021;DHT22;38907;45.562;8.856;2023-02-28T06:38:22;5.30;99.90
51021;DHT22;38907;45.562;8.856;2023-02-28T06:43:28;5.30;99.90
51021;DHT22;38907;45.562;8.856;2023-02-28T06:48:30;5.30;99.90
51021;DHT22;38907;45.562;8.856;2023-02-28T06:53:34;5.40;99.90
51021;DHT22;38907;45.562;8.856;2023-02-28T06:58:36;5.30;99.90
51021;DHT22;38907;45.562;8.856;2023-02-28T07:03:38;5.30;99.90
51021;DHT22;38907;45.562;8.856;2023-02-28T07:08:41;5.30;99.90
51021;DHT22;38907;45.562;8.856;2023-02-28T07:13:43;5.30;99.90
51021;DHT22;38907;45.562;8.856;2023-02-28T07:18:45;5.40;99.90
51021;DHT22;38907;45.562;8.856;2023-02-28T07:23:48;5.40;99.90
51021;DHT22;38907;45.562;8.856;2023-02-28T07:28:50;5.40;99.90
51021;DHT22;38907;45.562;8.856;2023-02-28T07:33:52;5.40;99.90
51021;DHT22;38907;45.562;8.856;2023-02-28T07:38:55;5.60;99.90
51021;DHT22;38907;45.562;8.856;2023-02-28T07:43:57;5.60;99.90
51021;DHT22;38907;45.562;8.856;2023-02-28T07:49:00;5.60;99.90
51021;DHT22;38907;45.562;8.856;2023-02-28T07:54:05;5.50;99.90
51021;DHT22;38907;45.562;8.856;2023-02-28T07:59:07;5.50;99.90
51021;DHT22;38907;45.562;8.856;2023-02-28T08:04:09;5.60;99.90
51021;DHT22;38907;45.562;8.856;2023-02-28T08:09:13;5.70;99.90
51021;DHT22;38907;45.562;8.856;2023-02-28T08:14:15;5.70;99.90
51021;DHT22;38907;45.562;8.856;2023-02-28T08:19:17;5.70;99.90
51021;DHT22;38907;45.562;8.856;2023-02-28T08:24:20;6.00;99.90
51021;DHT22;38907;45.562;8.856;2023-02-28T08:29:22;6.10;99.90
51021;DHT22;38907;45.562;8.856;2023-02-28T08:34:24;6.10;99.90
51021;DHT22;38907;45.562;8.856;2023-02-28T08:39:27;6.00;99.90
51021;DHT22;38907;45.562;8.856;2023-02-28T08:44:29;6.10;99.90
51021;DHT22;38907;45.562;8.856;2023-02-28T08:49:31;6.20;99.90
51021;DHT22;38907;45.562;8.856;2023-02-28T08:54:35;6.30;99.90
51021;DHT22;38907;45.562;8.856;2023-02-28T08:59:37;6.50;99.90
51021;DHT22;38907;45.562;8.856;2023-02-28T09:04:39;6.50;99.90
51021;DHT22;38907;45.562;8.856;2023-02-28T09:09:42;6.70;99.90
51021;DHT22;38907;45.562;8.856;2023-02-28T09:14:54;6.90;99.90
51021;DHT22;38907;45.562;8.856;2023-02-28T09:19:56;7.10;99.90
51021;DHT22;38907;45.562;8.856;2023-02-28T09:24:59;7.10;99.90
51021;DHT22;38907;45.562;8.856;2023-02-28T09:30:01;7.30;99.90
51021;DHT22;38907;45.562;8.856;2023-02-28T09:35:03;7.40;99.90
51021;DHT22;38907;45.562;8.856;2023-02-28T09:40:09;7.30;99.90
51021;DHT22;38907;45.562;8.856;2023-02-28T09:45:19;7.50;99.90
51021;DHT22;38907;45.562;8.856;2023-02-28T09:50:29;7.50;99.90
51021;DHT22;38907;45.562;8.856;2023-02-28T09:55:39;7.60;99.90
51021;DHT22;38907;45.562;8.856;2023-02-28T10:00:43;7.70;99.90
51021;DHT22;38907;45.562;8.856;2023-02-28T10:05:52;7.70;99.90
51021;DHT22;38907;45.562;8.856;2023-02-28T10:10:58;7.80;99.90
51021;DHT22;38907;45.562;8.856;2023-02-28T10:16:05;7.90;99.90
51021;DHT22;38907;45.562;8.856;2023-02-28T10:21:17;7.90;99.90
51021;DHT22;38907;45.562;8.856;2023-02-28T10:26:24;7.80;99.90
51021;DHT22;38907;45.562;8.856;2023-02-28T10:31:28;7.80;99.90
51021;DHT22;38907;45.562;8.856;2023-02-28T10:36:30;7.80;99.90
51021;DHT22;38907;45.562;8.856;2023-02-28T10:41:33;7.70;99.90
51021;DHT22;38907;45.562;8.856;2023-02-28T10:46:36;7.80;99.90
51021;DHT22;38907;45.562;8.856;2023-02-28T10:51:41;7.90;99.90
51021;DHT22;38907;45.562;8.856;2023-02-28T10:56:44;8.00;99.90
51021;DHT22;38907;45.562;8.856;2023-02-28T11:01:47;7.90;99.90
51021;DHT22;38907;45.562;8.856;2023-02-28T11:06:57;8.10;99.90
51021;DHT22;38907;45.562;8.856;2023-02-28T11:12:02;8.10;99.90
51021;DHT22;38907;45.562;8.856;2023-02-28T11:17:15;8.00;99.90
51021;DHT22;38907;45.562;8.856;2023-02-28T11:22:23;8.10;99.90
51021;DHT22;38907;45.562;8.856;2023-02-28T11:27:48;8.20;99.90
51021;DHT22;38907;45.562;8.856;2023-02-28T11:32:50;8.20;99.90
51021;DHT22;38907;45.562;8.856;2023-02-28T11:37:52;8.20;99.90
51021;DHT22;38907;45.562;8.856;2023-02-28T11:43:03;8.30;99.90
51021;DHT22;38907;45.562;8.856;2023-02-28T11:48:13;8.30;99.90
51021;DHT22;38907;45.562;8.856;2023-02-28T11:53:24;8.30;99.90
51021;DHT22;38907;45.562;8.856;2023-02-28T11:58:37;8.30;99.90
51021;DHT22;38907;45.562;8.856;2023-02-28T12:03:48;8.30;99.90
51021;DHT22;38907;45.562;8.856;2023-02-28T12:09:02;8.60;99.90
51021;DHT22;38907;45.562;8.856;2023-02-28T12:19:51;8.50;99.90
51021;DHT22;38907;45.562;8.856;2023-02-28T12:25:21;8.60;99.90
51021;DHT22;38907;45.562;8.856;2023-02-28T12:30:29;8.80;99.90
51021;DHT22;38907;45.562;8.856;2023-02-28T12:35:34;8.80;99.90
51021;DHT22;38907;45.562;8.856;2023-02-28T12:40:44;8.90;99.90
51021;DHT22;38907;45.562;8.856;2023-02-28T12:45:51;8.90;99.90
51021;DHT22;38907;45.562;8.856;2023-02-28T12:50:54;8.60;99.90
51021;DHT22;38907;45.562;8.856;2023-02-28T12:56:06;8.90;99.90
51021;DHT22;38907;45.562;8.856;2023-02-28T13:01:28;8.90;99.90
51021;DHT22;38907;45.562;8.856;2023-02-28T13:06:49;8.90;99.90
51021;DHT22;38907;45.562;8.856;2023-02-28T13:11:54;8.90;99.90
51021;DHT22;38907;45.562;8.856;2023-02-28T13:17:01;8.70;99.90
51021;DHT22;38907;45.562;8.856;2023-02-28T13:22:04;8.80;99.90
51021;DHT22;38907;45.562;8.856;2023-02-28T13:32:35;8.90;99.90
51021;DHT22;38907;45.562;8.856;2023-02-28T13:37:43;8.90;99.90
51021;DHT22;38907;45.562;8.856;2023-02-28T13:42:48;8.80;99.90
51021;DHT22;38907;45.562;8.856;2023-02-28T13:47:59;8.90;99.90
51021;DHT22;38907;45.562;8.856;2023-02-28T13:58:48;8.90;99.90
51021;DHT22;38907;45.562;8.856;2023-02-28T14:04:21;8.90;99.90
51021;DHT22;38907;45.562;8.856;2023-02-28T14:09:30;8.90;99.90
51021;DHT22;38907;45.562;8.856;2023-02-28T14:14:54;9.10;99.90
51021;DHT22;38907;45.562;8.856;2023-02-28T14:19:59;9.10;99.90
51021;DHT22;38907;45.562;8.856;2023-02-28T14:25:09;9.00;99.90
51021;DHT22;38907;45.562;8.856;2023-02-28T14:30:36;9.00;99.90
51021;DHT22;38907;45.562;8.856;2023-02-28T14:36:01;9.10;99.90
51021;DHT22;38907;45.562;8.856;2023-02-28T14:41:04;9.10;99.90
51021;DHT22;38907;45.562;8.856;2023-02-28T14:46:08;9.20;99.90
51021;DHT22;38907;45.562;8.856;2023-02-28T14:51:21;9.20;99.90
51021;DHT22;38907;45.562;8.856;2023-02-28T14:56:25;9.20;99.90
51021;DHT22;38907;45.562;8.856;2023-02-28T15:01:28;9.30;99.90
51021;DHT22;38907;45.562;8.856;2023-02-28T15:06:33;9.30;99.90
51021;DHT22;38907;45.562;8.856;2023-02-28T15:11:36;9.20;99.90
51021;DHT22;38907;45.562;8.856;2023-02-28T15:16:41;9.10;99.90
51021;DHT22;38907;45.562;8.856;2023-02-28T15:21:48;9.10;99.90
51021;DHT22;38907;45.562;8.856;2023-02-28T15:26:54;9.20;99.90
51021;DHT22;38907;45.562;8.856;2023-02-28T15:32:01;9.20;99.90
51021;DHT22;38907;45.562;8.856;2023-02-28T15:37:30;9.20;99.90
51021;DHT22;38907;45.562;8.856;2023-02-28T15:42:35;9.30;99.90
51021;DHT22;38907;45.562;8.856;2023-02-28T15:47:36;9.20;99.90
51021;DHT22;38907;45.562;8.856;2023-02-28T15:52:42;9.30;99.90
51021;DHT22;38907;45.562;8.856;2023-02-28T15:57:46;9.10;99.90
51021;DHT22;38907;45.562;8.856;2023-02-28T16:02:48;9.20;99.90
51021;DHT22;38907;45.562;8.856;2023-02-28T16:07:51;9.10;99.90
51021;DHT22;38907;45.562;8.856;2023-02-28T16:12:53;9.20;99.90
51021;DHT22;38907;45.562;8.856;2023-02-28T16:17:57;9.20;99.90
51021;DHT22;38907;45.562;8.856;2023-02-28T16:23:00;9.10;99.90
51021;DHT22;38907;45.562;8.856;2023-02-28T16:28:03;9.10;99.90
51021;DHT22;38907;45.562;8.856;2023-02-28T16:33:08;8.90;99.90
51021;DHT22;38907;45.562;8.856;2023-02-28T16:38:11;8.90;99.90
51021;DHT22;38907;45.562;8.856;2023-02-28T16:43:16;8.80;99.90
51021;DHT22;38907;45.562;8.856;2023-02-28T16:48:19;8.60;99.90
51021;DHT22;38907;45.562;8.856;2023-02-28T16:53:22;8.50;99.90
51021;DHT22;38907;45.562;8.856;2023-02-28T16:58:24;8.40;99.90
51021;DHT22;38907;45.562;8.856;2023-02-28T17:03:28;8.30;99.90
51021;DHT22;38907;45.562;8.856;2023-02-28T17:08:31;8.20;99.90
51021;DHT22;38907;45.562;8.856;2023-02-28T17:13:33;8.10;99.90
51021;DHT22;38907;45.562;8.856;2023-02-28T17:18:35;8.00;99.90
51021;DHT22;38907;45.562;8.856;2023-02-28T17:23:40;7.90;99.90
51021;DHT22;38907;45.562;8.856;2023-02-28T17:28:42;7.80;99.90
51021;DHT22;38907;45.562;8.856;2023-02-28T17:33:44;7.60;99.90
51021;DHT22;38907;45.562;8.856;2023-02-28T17:38:47;7.60;99.90
51021;DHT22;38907;45.562;8.856;2023-02-28T17:43:49;7.50;99.90
51021;DHT22;38907;45.562;8.856;2023-02-28T17:48:53;7.40;99.90
51021;DHT22;38907;45.562;8.856;2023-02-28T17:53:56;7.40;99.90
51021;DHT22;38907;45.562;8.856;2023-02-28T17:58:58;7.30;99.90
51021;DHT22;38907;45.562;8.856;2023-02-28T18:03:59;7.30;99.90
51021;DHT22;38907;45.562;8.856;2023-02-28T18:09:03;7.20;99.90
51021;DHT22;38907;45.562;8.856;2023-02-28T18:14:05;7.20;99.90
51021;DHT22;38907;45.562;8.856;2023-02-28T18:19:06;7.00;99.90
51021;DHT22;38907;45.562;8.856;2023-02-28T18:24:16;6.90;99.90
51021;DHT22;38907;45.562;8.856;2023-02-28T18:29:20;6.80;99.90
51021;DHT22;38907;45.562;8.856;2023-02-28T18:34:23;6.70;99.90
51021;DHT22;38907;45.562;8.856;2023-02-28T18:39:26;6.60;99.90
51021;DHT22;38907;45.562;8.856;2023-02-28T18:44:28;6.60;99.90
51021;DHT22;38907;45.562;8.856;2023-02-28T18:49:30;6.50;99.90
51021;DHT22;38907;45.562;8.856;2023-02-28T18:54:35;6.40;99.90
51021;DHT22;38907;45.562;8.856;2023-02-28T18:59:36;6.30;99.90
51021;DHT22;38907;45.562;8.856;2023-02-28T19:04:40;6.30;99.90
51021;DHT22;38907;45.562;8.856;2023-02-28T19:09:43;6.30;99.90
51021;DHT22;38907;45.562;8.856;2023-02-28T19:14:45;6.20;99.90
51021;DHT22;38907;45.562;8.856;2023-02-28T19:19:47;6.10;99.90
51021;DHT22;38907;45.562;8.856;2023-02-28T19:24:50;6.10;99.90
51021;DHT22;38907;45.562;8.856;2023-02-28T19:29:52;6.00;99.90
51021;DHT22;38907;45.562;8.856;2023-02-28T19:34:55;6.00;99.90
51021;DHT22;38907;45.562;8.856;2023-02-28T19:39:58;6.00;99.90
51021;DHT22;38907;45.562;8.856;2023-02-28T19:45:00;6.00;99.90
51021;DHT22;38907;45.562;8.856;2023-02-28T19:50:02;6.10;99.90
51021;DHT22;38907;45.562;8.856;2023-02-28T19:55:08;5.90;99.90
51021;DHT22;38907;45.562;8.856;2023-02-28T20:00:12;5.90;99.90
51021;DHT22;38907;45.562;8.856;2023-02-28T20:05:15;5.90;99.90
51021;DHT22;38907;45.562;8.856;2023-02-28T20:10:18;5.80;99.90
51021;DHT22;38907;45.562;8.856;2023-02-28T20:15:20;5.80;99.90
51021;DHT22;38907;45.562;8.856;2023-02-28T20:20:22;5.70;99.90
51021;DHT22;38907;45.562;8.856;2023-02-28T20:25:25;5.80;99.90
51021;DHT22;38907;45.562;8.856;2023-02-28T20:30:27;5.70;99.90
51021;DHT22;38907;45.562;8.856;2023-02-28T20:35:29;5.80;99.90
51021;DHT22;38907;45.562;8.856;2023-02-28T20:40:32;5.80;99.90
51021;DHT22;38907;45.562;8.856;2023-02-28T20:45:34;5.80;99.90
51021;DHT22;38907;45.562;8.856;2023-02-28T20:50:36;5.60;99.90
51021;DHT22;38907;45.562;8.856;2023-02-28T20:55:39;5.60;99.90
51021;DHT22;38907;45.562;8.856;2023-02-28T21:00:41;5.60;99.90
51021;DHT22;38907;45.562;8.856;2023-02-28T21:05:43;5.50;99.90
51021;DHT22;38907;45.562;8.856;2023-02-28T21:10:46;5.40;99.90
51021;DHT22;38907;45.562;8.856;2023-02-28T21:15:48;5.40;99.90
51021;DHT22;38907;45.562;8.856;2023-02-28T21:20:50;5.50;99.90
51021;DHT22;38907;45.562;8.856;2023-02-28T21:25:53;5.40;99.90
51021;DHT22;38907;45.562;8.856;2023-02-28T21:31:00;5.40;99.90
51021;DHT22;38907;45.562;8.856;2023-02-28T21:36:04;5.40;99.90
51021;DHT22;38907;45.562;8.856;2023-02-28T21:41:09;5.60;99.90
51021;DHT22;38907;45.562;8.856;2023-02-28T21:46:13;5.60;99.90
51021;DHT22;38907;45.562;8.856;2023-02-28T21:51:17;5.50;99.90
51021;DHT22;38907;45.562;8.856;2023-02-28T21:56:21;5.60;99.90
51021;DHT22;38907;45.562;8.856;2023-02-28T22:01:23;5.70;99.90
51021;DHT22;38907;45.562;8.856;2023-02-28T22:06:26;5.60;99.90
51021;DHT22;38907;45.562;8.856;2023-02-28T22:11:31;5.60;99.90
51021;DHT22;38907;45.562;8.856;2023-02-28T22:16:34;5.60;99.90
51021;DHT22;38907;45.562;8.856;2023-02-28T22:21:36;5.60;99.90
51021;DHT22;38907;45.562;8.856;2023-02-28T22:26:40;5.50;99.90
51021;DHT22;38907;45.562;8.856;2023-02-28T22:31:42;5.50;99.90
51021;DHT22;38907;45.562;8.856;2023-02-28T22:36:44;5.60;99.90
51021;DHT22;38907;45.562;8.856;2023-02-28T22:41:47;5.60;99.90
51021;DHT22;38907;45.562;8.856;2023-02-28T22:46:52;5.70;99.90
51021;DHT22;38907;45.562;8.856;2023-02-28T22:51:54;5.60;99.90
51021;DHT22;38907;45.562;8.856;2023-02-28T22:56:57;5.70;99.90
51021;DHT22;38907;45.562;8.856;2023-02-28T23:01:59;5.80;99.90
51021;DHT22;38907;45.562;8.856;2023-02-28T23:07:01;5.80;99.90
51021;DHT22;38907;45.562;8.856;2023-02-28T23:12:04;5.70;99.90
51021;DHT22;38907;45.562;8.856;2023-02-28T23:17:06;5.80;99.90
51021;DHT22;38907;45.562;8.856;2023-02-28T23:22:08;5.80;99.90
51021;DHT22;38907;45.562;8.856;2023-02-28T23:27:11;5.70;99.90
51021;DHT22;38907;45.562;8.856;2023-02-28T23:32:13;5.80;99.90
51021;DHT22;38907;45.562;8.856;2023-02-28T23:37:15;5.70;99.90
51021;DHT22;38907;45.562;8.856;2023-02-28T23:42:18;5.70;99.90
51021;DHT22;38907;45.562;8.856;2023-02-28T23:47:21;5.70;99.90
51021;DHT22;38907;45.562;8.856;2023-02-28T23:52:23;5.70;99.90
51021;DHT22;38907;45.562;8.856;2023-02-28T23:57:26;5.80;99.90
